createdAt,value
2018-05-21T00:02:59.649Z,9.00
2018-05-21T00:06:05.827Z,9.20
2018-05-21T00:09:10.766Z,9.10
2018-05-21T00:12:17.882Z,9.30
2018-05-21T00:15:23.900Z,9.30
2018-05-21T00:18:29.890Z,9.30
2018-05-21T00:21:35.950Z,9.40
2018-05-21T00:24:41.815Z,9.40
2018-05-21T00:27:48.060Z,9.20
2018-05-21T00:30:54.035Z,9.20
2018-05-21T00:34:00.439Z,9.10
2018-05-21T00:37:07.231Z,9.10
2018-05-21T00:40:13.248Z,9.10
2018-05-21T00:43:19.302Z,9.20
2018-05-21T00:46:24.556Z,9.10
2018-05-21T00:49:30.395Z,9.10
2018-05-21T00:52:36.328Z,9.10
2018-05-21T00:55:54.124Z,8.90
2018-05-21T00:59:00.271Z,8.80
2018-05-21T01:02:07.147Z,8.70
2018-05-21T01:05:13.268Z,8.70
2018-05-21T01:08:18.923Z,8.70
2018-05-21T01:11:24.978Z,8.70
2018-05-21T01:14:30.965Z,8.70
2018-05-21T01:17:37.317Z,8.80
2018-05-21T01:20:43.202Z,8.60
2018-05-21T01:23:49.378Z,8.60
2018-05-21T01:26:54.702Z,8.50
2018-05-21T01:30:00.923Z,8.50
2018-05-21T01:33:06.730Z,8.50
2018-05-21T01:36:11.998Z,8.50
2018-05-21T01:39:18.790Z,8.40
2018-05-21T01:42:25.180Z,8.40
2018-05-21T01:45:30.881Z,8.60
2018-05-21T01:48:37.186Z,8.60
2018-05-21T01:51:43.091Z,8.60
2018-05-21T01:54:49.159Z,8.40
2018-05-21T01:57:55.070Z,8.20
2018-05-21T02:01:00.309Z,8.30
2018-05-21T02:04:06.043Z,8.10
2018-05-21T02:07:12.322Z,8.10
2018-05-21T02:10:18.205Z,8.00
2018-05-21T02:13:24.300Z,8.00
2018-05-21T02:16:30.308Z,7.80
2018-05-21T02:19:36.314Z,7.70
2018-05-21T02:22:42.274Z,7.70
2018-05-21T02:25:48.295Z,7.70
2018-05-21T02:28:54.154Z,7.70
2018-05-21T02:32:00.193Z,7.70
2018-05-21T02:35:06.505Z,7.60
2018-05-21T02:38:12.543Z,7.60
2018-05-21T02:41:18.535Z,7.40
2018-05-21T02:44:24.570Z,7.40
2018-05-21T02:47:30.434Z,7.40
2018-05-21T02:50:36.144Z,7.30
2018-05-21T02:53:42.173Z,7.20
2018-05-21T02:56:48.473Z,7.10
2018-05-21T02:59:54.448Z,7.10
2018-05-21T03:03:00.571Z,7.20
2018-05-21T03:06:06.959Z,7.20
2018-05-21T03:09:12.933Z,7.30
2018-05-21T03:12:18.887Z,7.20
2018-05-21T03:15:24.849Z,7.20
2018-05-21T03:18:30.974Z,7.20
2018-05-21T03:21:36.275Z,7.20
2018-05-21T03:24:42.493Z,7.30
2018-05-21T03:27:48.549Z,7.20
2018-05-21T03:30:54.695Z,7.20
2018-05-21T03:34:01.904Z,7.00
2018-05-21T03:37:08.056Z,7.10
2018-05-21T03:40:13.992Z,7.10
2018-05-21T03:43:20.231Z,7.10
2018-05-21T03:46:26.471Z,7.10
2018-05-21T03:49:32.575Z,7.20
2018-05-21T03:52:38.862Z,7.20
2018-05-21T03:55:44.606Z,7.20
2018-05-21T03:59:02.568Z,7.60
2018-05-21T04:02:20.414Z,7.60
2018-05-21T04:05:26.200Z,7.90
2018-05-21T04:08:33.159Z,8.30
2018-05-21T04:11:39.256Z,8.30
2018-05-21T04:14:45.173Z,8.50
2018-05-21T04:17:51.235Z,8.60
2018-05-21T04:20:57.537Z,8.70
2018-05-21T04:24:04.695Z,8.80
2018-05-21T04:27:10.641Z,9.00
2018-05-21T04:30:16.715Z,9.10
2018-05-21T04:33:22.796Z,9.20
2018-05-21T04:36:28.983Z,9.40
2018-05-21T04:39:34.823Z,9.70
2018-05-21T04:42:41.128Z,9.70
2018-05-21T04:45:47.154Z,10.00
2018-05-21T04:48:53.197Z,9.90
2018-05-21T04:51:59.486Z,10.10
2018-05-21T04:55:05.450Z,10.00
2018-05-21T04:58:11.602Z,9.90
2018-05-21T05:01:17.607Z,9.80
2018-05-21T05:04:23.672Z,10.20
2018-05-21T05:07:29.875Z,10.50
2018-05-21T05:10:35.014Z,10.50
2018-05-21T05:13:42.123Z,10.60
2018-05-21T05:16:48.184Z,10.50
2018-05-21T05:19:54.118Z,10.50
2018-05-21T05:22:59.222Z,10.70
2018-05-21T05:26:05.397Z,10.70
2018-05-21T05:29:11.414Z,11.00
2018-05-21T05:32:17.467Z,11.10
2018-05-21T05:35:23.579Z,11.10
2018-05-21T05:38:29.750Z,11.20
2018-05-21T05:41:36.153Z,11.30
2018-05-21T05:44:42.058Z,11.40
2018-05-21T05:47:47.951Z,11.30
2018-05-21T05:51:01.949Z,11.40
2018-05-21T05:54:07.905Z,11.20
2018-05-21T05:57:13.819Z,11.40
2018-05-21T06:00:19.985Z,11.70
2018-05-21T06:03:26.254Z,11.70
2018-05-21T06:06:32.360Z,11.80
2018-05-21T06:09:38.338Z,11.90
2018-05-21T06:12:44.403Z,12.00
2018-05-21T06:15:50.358Z,12.40
2018-05-21T06:18:56.290Z,12.50
2018-05-21T06:22:02.247Z,12.60
2018-05-21T06:25:09.325Z,12.80
2018-05-21T06:28:15.167Z,13.10
2018-05-21T06:31:22.522Z,13.10
2018-05-21T06:34:28.648Z,13.80
2018-05-21T06:37:35.710Z,13.80
2018-05-21T06:40:41.560Z,13.80
2018-05-21T06:43:47.662Z,13.90
2018-05-21T06:46:53.741Z,14.40
2018-05-21T06:49:59.732Z,14.80
2018-05-21T06:53:05.868Z,15.00
2018-05-21T06:56:11.797Z,15.80
2018-05-21T06:59:17.703Z,15.90
2018-05-21T07:02:23.644Z,15.90
2018-05-21T07:05:28.933Z,15.80
2018-05-21T07:08:34.699Z,15.90
2018-05-21T07:11:40.686Z,16.00
2018-05-21T07:14:46.551Z,16.10
2018-05-21T07:17:52.715Z,17.00
2018-05-21T07:20:58.804Z,19.80
2018-05-21T07:24:05.207Z,20.80
2018-05-21T07:27:11.250Z,21.60
2018-05-21T07:30:17.240Z,22.30
2018-05-21T07:33:23.362Z,22.30
2018-05-21T07:36:29.310Z,22.60
2018-05-21T07:39:35.438Z,23.00
2018-05-21T07:42:42.604Z,23.50
2018-05-21T07:45:48.617Z,24.40
2018-05-21T07:48:54.801Z,24.40
2018-05-21T07:52:00.914Z,25.10
2018-05-21T07:55:07.027Z,25.30
2018-05-21T07:58:12.935Z,25.70
2018-05-21T08:01:18.426Z,24.90
2018-05-21T08:04:23.751Z,25.40
2018-05-21T08:07:29.055Z,25.10
2018-05-21T08:10:35.100Z,24.50
2018-05-21T08:13:41.277Z,24.30
2018-05-21T08:16:47.438Z,24.20
2018-05-21T08:19:53.602Z,24.30
2018-05-21T08:22:59.616Z,24.50
2018-05-21T08:26:05.619Z,25.50
2018-05-21T08:29:11.609Z,25.50
2018-05-21T08:32:17.591Z,25.70
2018-05-21T08:35:23.703Z,25.50
2018-05-21T08:38:30.032Z,25.00
2018-05-21T08:41:36.104Z,25.00
2018-05-21T08:44:41.612Z,25.50
2018-05-21T08:47:47.697Z,25.90
2018-05-21T08:50:53.039Z,25.80
2018-05-21T08:53:58.494Z,25.70
2018-05-21T08:57:04.408Z,25.60
2018-05-21T09:00:10.492Z,25.10
2018-05-21T09:03:16.600Z,25.60
2018-05-21T09:06:22.622Z,26.20
2018-05-21T09:09:29.775Z,26.10
2018-05-21T09:12:35.883Z,26.60
2018-05-21T09:15:41.796Z,26.60
2018-05-21T09:18:47.963Z,26.60
2018-05-21T09:21:54.242Z,27.10
2018-05-21T09:25:00.653Z,27.20
2018-05-21T09:28:06.594Z,27.20
2018-05-21T09:31:12.664Z,27.20
2018-05-21T09:34:18.758Z,27.10
2018-05-21T09:37:24.837Z,26.70
2018-05-21T09:40:30.970Z,27.00
2018-05-21T09:43:36.664Z,26.80
2018-05-21T09:46:42.488Z,27.10
2018-05-21T09:49:48.363Z,27.20
2018-05-21T09:52:56.052Z,26.90
2018-05-21T09:56:01.434Z,26.90
2018-05-21T09:59:06.560Z,27.20
2018-05-21T10:02:12.619Z,27.50
2018-05-21T10:05:18.748Z,27.50
2018-05-21T10:08:24.965Z,27.60
2018-05-21T10:11:31.763Z,28.10
2018-05-21T10:14:43.124Z,28.00
2018-05-21T10:17:51.323Z,29.50
2018-05-21T10:20:57.455Z,28.90
2018-05-21T10:24:03.457Z,29.60
2018-05-21T10:27:09.439Z,29.50
2018-05-21T10:30:15.374Z,29.10
2018-05-21T10:33:22.378Z,29.10
2018-05-21T10:36:28.542Z,28.70
2018-05-21T10:39:34.761Z,29.20
2018-05-21T10:42:40.752Z,29.50
2018-05-21T10:45:46.590Z,29.20
2018-05-21T10:48:52.494Z,29.20
2018-05-21T10:51:58.744Z,28.80
2018-05-21T10:55:04.875Z,28.70
2018-05-21T10:58:10.815Z,28.70
2018-05-21T11:01:16.552Z,28.80
2018-05-21T11:04:21.766Z,29.70
2018-05-21T11:07:27.966Z,29.40
2018-05-21T11:10:33.889Z,29.40
2018-05-21T11:13:39.916Z,30.70
2018-05-21T11:16:46.066Z,30.50
2018-05-21T11:19:52.064Z,30.50
2018-05-21T11:22:58.307Z,30.80
2018-05-21T11:26:05.325Z,30.10
2018-05-21T11:29:11.575Z,31.10
2018-05-21T11:32:17.490Z,31.10
2018-05-21T11:35:23.723Z,30.60
2018-05-21T11:38:29.839Z,30.60
2018-05-21T11:41:35.901Z,29.90
2018-05-21T11:44:41.814Z,30.50
2018-05-21T11:47:47.279Z,30.20
2018-05-21T11:50:53.612Z,30.20
2018-05-21T11:53:59.650Z,31.50
2018-05-21T11:57:04.841Z,31.50
2018-05-21T12:00:11.762Z,31.00
2018-05-21T12:03:17.852Z,30.90
2018-05-21T12:06:23.731Z,31.40
2018-05-21T12:09:29.796Z,31.10
2018-05-21T12:12:36.007Z,31.00
2018-05-21T12:15:41.983Z,30.50
2018-05-21T12:18:47.474Z,30.70
2018-05-21T12:21:53.818Z,30.20
2018-05-21T12:25:01.789Z,29.80
2018-05-21T12:28:06.946Z,29.80
2018-05-21T12:31:13.299Z,30.00
2018-05-21T12:34:19.563Z,30.70
2018-05-21T12:37:25.980Z,30.70
2018-05-21T12:40:35.091Z,30.40
2018-05-21T12:43:41.388Z,30.90
2018-05-21T12:46:46.723Z,32.10
2018-05-21T12:49:52.676Z,32.10
2018-05-21T12:52:58.810Z,32.30
2018-05-21T12:56:04.927Z,31.00
2018-05-21T12:59:10.960Z,30.90
2018-05-21T13:02:17.154Z,30.50
2018-05-21T13:05:23.204Z,30.60
2018-05-21T13:08:29.332Z,31.50
2018-05-21T13:11:35.339Z,31.50
2018-05-21T13:14:41.034Z,30.90
2018-05-21T13:17:47.272Z,30.40
2018-05-21T13:20:53.302Z,30.70
2018-05-21T13:23:59.763Z,30.70
2018-05-21T13:27:06.311Z,30.30
2018-05-21T13:30:12.457Z,30.70
2018-05-21T13:33:17.608Z,30.60
2018-05-21T13:36:23.780Z,30.60
2018-05-21T13:39:29.587Z,31.10
2018-05-21T13:42:35.724Z,31.20
2018-05-21T13:45:41.848Z,31.60
2018-05-21T13:48:47.388Z,31.60
2018-05-21T13:51:54.427Z,31.20
2018-05-21T13:55:00.405Z,31.20
2018-05-21T13:58:06.280Z,30.50
2018-05-21T14:01:12.311Z,30.50
2018-05-21T14:04:18.316Z,31.20
2018-05-21T14:07:24.282Z,31.10
2018-05-21T14:10:30.282Z,31.20
2018-05-21T14:13:36.580Z,30.70
2018-05-21T14:16:42.838Z,31.00
2018-05-21T14:19:48.956Z,30.80
2018-05-21T14:22:55.017Z,31.20
2018-05-21T14:26:01.069Z,30.90
2018-05-21T14:29:07.219Z,30.60
2018-05-21T14:32:13.637Z,30.90
2018-05-21T14:35:19.786Z,30.80
2018-05-21T14:38:27.219Z,30.90
2018-05-21T14:41:36.600Z,31.30
2018-05-21T14:44:41.865Z,30.60
2018-05-21T14:47:49.609Z,31.20
2018-05-21T14:50:56.038Z,29.70
2018-05-21T14:54:01.386Z,29.70
2018-05-21T14:57:07.739Z,28.30
2018-05-21T15:00:14.543Z,25.40
2018-05-21T15:03:21.522Z,24.50
2018-05-21T15:06:27.544Z,24.50
2018-05-21T15:09:34.918Z,23.80
2018-05-21T15:12:40.903Z,23.30
2018-05-21T15:15:47.115Z,22.90
2018-05-21T15:18:54.153Z,22.80
2018-05-21T15:22:00.209Z,22.70
2018-05-21T15:25:06.173Z,22.60
2018-05-21T15:28:12.249Z,22.60
2018-05-21T15:31:18.538Z,22.70
2018-05-21T15:34:24.463Z,22.70
2018-05-21T15:37:30.400Z,22.70
2018-05-21T15:40:36.493Z,22.60
2018-05-21T15:43:42.719Z,22.80
2018-05-21T15:46:48.664Z,22.80
2018-05-21T15:49:54.738Z,22.70
2018-05-21T15:53:01.577Z,22.70
2018-05-21T15:56:07.812Z,22.80
2018-05-21T15:59:13.889Z,22.70
2018-05-21T16:02:20.300Z,22.70
2018-05-21T16:05:25.509Z,22.70
2018-05-21T16:08:31.975Z,22.90
2018-05-21T16:11:38.744Z,22.60
2018-05-21T16:14:44.611Z,22.30
2018-05-21T16:17:50.933Z,22.20
2018-05-21T16:20:58.444Z,21.90
2018-05-21T16:24:04.703Z,21.90
2018-05-21T16:27:11.501Z,21.80
2018-05-21T16:30:17.514Z,21.60
2018-05-21T16:33:23.661Z,21.40
2018-05-21T16:36:29.726Z,21.10
2018-05-21T16:39:35.725Z,21.00
2018-05-21T16:42:41.772Z,21.00
2018-05-21T16:45:47.756Z,20.90
2018-05-21T16:48:53.892Z,20.90
2018-05-21T16:52:00.107Z,21.00
2018-05-21T16:55:06.017Z,20.90
2018-05-21T16:58:12.225Z,21.00
2018-05-21T17:01:18.365Z,20.80
2018-05-21T17:04:24.403Z,20.80
2018-05-21T17:07:30.427Z,20.80
2018-05-21T17:10:36.365Z,20.80
2018-05-21T17:13:42.545Z,20.50
2018-05-21T17:16:48.569Z,20.40
2018-05-21T17:19:55.014Z,19.80
2018-05-21T17:23:01.073Z,19.70
2018-05-21T17:26:06.995Z,19.30
2018-05-21T17:29:13.025Z,19.10
2018-05-21T17:32:19.965Z,18.90
2018-05-21T17:35:25.991Z,18.80
2018-05-21T17:38:31.233Z,18.70
2018-05-21T17:41:37.371Z,18.60
2018-05-21T17:44:43.363Z,18.30
2018-05-21T17:47:49.410Z,18.30
2018-05-21T17:50:54.608Z,18.20
2018-05-21T17:54:00.827Z,18.00
2018-05-21T17:57:07.089Z,17.80
2018-05-21T18:00:14.151Z,17.60
2018-05-21T18:03:20.525Z,17.40
2018-05-21T18:06:26.248Z,17.40
2018-05-21T18:09:32.249Z,17.20
2018-05-21T18:12:38.249Z,17.10
2018-05-21T18:15:44.590Z,17.10
2018-05-21T18:18:50.745Z,17.00
2018-05-21T18:21:56.764Z,16.90
2018-05-21T18:25:03.025Z,16.90
2018-05-21T18:28:10.036Z,16.60
2018-05-21T18:31:16.402Z,16.50
2018-05-21T18:34:23.730Z,16.50
2018-05-21T18:37:29.634Z,16.20
2018-05-21T18:40:35.871Z,16.20
2018-05-21T18:43:43.090Z,15.90
2018-05-21T18:46:49.181Z,15.90
2018-05-21T18:49:55.259Z,15.80
2018-05-21T18:53:01.323Z,15.70
2018-05-21T18:56:07.218Z,15.60
2018-05-21T18:59:13.272Z,15.20
2018-05-21T19:02:18.726Z,15.20
2018-05-21T19:05:24.961Z,15.00
2018-05-21T19:08:31.088Z,14.90
2018-05-21T19:11:36.414Z,14.70
2018-05-21T19:14:42.568Z,14.60
2018-05-21T19:17:48.587Z,14.30
2018-05-21T19:20:54.672Z,13.90
2018-05-21T19:24:00.850Z,13.80
2018-05-21T19:27:07.024Z,13.70
2018-05-21T19:30:13.199Z,13.70
2018-05-21T19:33:19.348Z,13.70
2018-05-21T19:36:25.462Z,13.60
2018-05-21T19:39:30.931Z,13.60
2018-05-21T19:42:36.845Z,13.50
2018-05-21T19:45:43.107Z,13.40
2018-05-21T19:48:49.265Z,13.20
2018-05-21T19:51:55.349Z,13.20
2018-05-21T19:55:01.473Z,13.00
2018-05-21T19:58:06.831Z,13.00
2018-05-21T20:01:13.047Z,12.80
2018-05-21T20:04:19.159Z,12.50
2018-05-21T20:07:25.250Z,12.50
2018-05-21T20:10:32.341Z,12.40
2018-05-21T20:13:38.258Z,12.40
2018-05-21T20:16:44.485Z,12.30
2018-05-21T20:19:50.451Z,12.50
2018-05-21T20:22:56.613Z,12.50
2018-05-21T20:26:02.552Z,12.10
2018-05-21T20:29:08.807Z,12.10
2018-05-21T20:32:14.843Z,12.00
2018-05-21T20:35:21.077Z,12.10
2018-05-21T20:38:27.013Z,12.20
2018-05-21T20:41:33.194Z,12.20
2018-05-21T20:44:40.158Z,12.20
2018-05-21T20:48:01.257Z,12.20
2018-05-21T20:51:07.664Z,12.20
2018-05-21T20:54:13.755Z,12.10
2018-05-21T20:57:21.076Z,12.00
2018-05-21T21:00:26.383Z,12.10
2018-05-21T21:03:32.450Z,12.10
2018-05-21T21:06:38.577Z,12.10
2018-05-21T21:09:44.718Z,12.10
2018-05-21T21:12:50.900Z,11.90
2018-05-21T21:15:56.960Z,11.90
2018-05-21T21:19:03.165Z,12.00
2018-05-21T21:22:09.149Z,12.00
2018-05-21T21:25:15.086Z,11.90
2018-05-21T21:28:21.189Z,11.80
2018-05-21T21:31:27.426Z,11.70
2018-05-21T21:34:33.503Z,11.70
2018-05-21T21:37:39.553Z,11.60
2018-05-21T21:40:45.563Z,11.40
2018-05-21T21:43:51.720Z,11.20
2018-05-21T21:46:58.801Z,11.20
2018-05-21T21:50:05.143Z,11.10
2018-05-21T21:53:11.240Z,11.00
2018-05-21T21:56:17.629Z,10.90
2018-05-21T21:59:23.573Z,10.80
2018-05-21T22:02:29.590Z,10.70
2018-05-21T22:05:35.714Z,10.60
2018-05-21T22:08:42.646Z,10.70
2018-05-21T22:11:48.119Z,10.70
2018-05-21T22:14:54.158Z,10.60
2018-05-21T22:17:59.828Z,10.50
2018-05-21T22:21:06.052Z,10.40
2018-05-21T22:24:12.947Z,10.30
2018-05-21T22:27:18.990Z,10.30
2018-05-21T22:30:25.201Z,10.20
2018-05-21T22:33:30.360Z,10.20
2018-05-21T22:36:36.491Z,10.30
2018-05-21T22:39:42.450Z,10.30
2018-05-21T22:42:48.337Z,10.20
2018-05-21T22:45:54.286Z,10.20
2018-05-21T22:49:00.472Z,10.10
2018-05-21T22:52:06.485Z,10.10
2018-05-21T22:55:12.629Z,10.10
2018-05-21T22:58:17.874Z,10.20
2018-05-21T23:01:24.189Z,10.10
2018-05-21T23:04:30.625Z,10.10
2018-05-21T23:07:36.825Z,10.10
2018-05-21T23:10:42.927Z,10.10
2018-05-21T23:13:49.089Z,10.20
2018-05-21T23:16:55.282Z,10.30
2018-05-21T23:20:01.533Z,10.30
2018-05-21T23:23:07.895Z,10.30
2018-05-21T23:26:14.164Z,10.20
2018-05-21T23:29:20.248Z,10.20
2018-05-21T23:32:26.403Z,10.10
2018-05-21T23:35:32.374Z,10.10
2018-05-21T23:38:38.338Z,10.00
2018-05-21T23:41:44.418Z,9.90
2018-05-21T23:44:50.404Z,9.90
2018-05-21T23:47:56.542Z,9.90
2018-05-21T23:51:02.719Z,9.80
2018-05-21T23:54:09.162Z,9.80
2018-05-21T23:57:15.425Z,9.70
